Time;durP1;ratioP1;P1;durP2;ratioP2;P2;SDS_P1;SDS_P2;PMS_P1;PMS_P2;Temp;Humidity;BMP_temperature;BMP_pressure;BME280_temperature;BME280_humidity;BME280_pressure;Samples;Min_cycle;Max_cycle;Signal;HPM_P1;HPM_P2
2023/09/11 00:00:27;;;;;;;23.80;7.17;;;16.60;99.90;;;;;;5071842;28;20252;-74
2023/09/11 00:02:52;;;;;;;22.47;6.67;;;16.50;99.90;;;;;;5072177;28;20186;-72
2023/09/11 00:05:18;;;;;;;26.27;6.77;;;16.50;99.90;;;;;;5072539;28;20749;-73
2023/09/11 00:07:43;;;;;;;16.53;6.63;;;16.40;99.90;;;;;;5071680;28;20175;-73
2023/09/11 00:10:09;;;;;;;27.00;6.73;;;16.30;99.90;;;;;;5072590;28;20265;-72
2023/09/11 00:12:35;;;;;;;20.77;5.87;;;16.20;99.90;;;;;;5070915;28;20217;-72
2023/09/11 00:15:01;;;;;;;22.97;6.60;;;16.20;99.90;;;;;;5072169;28;20216;-72
2023/09/11 00:17:26;;;;;;;18.07;6.77;;;16.20;99.90;;;;;;5071271;28;20317;-74
2023/09/11 00:19:53;;;;;;;21.50;6.10;;;16.20;99.90;;;;;;5072051;28;20198;-72
2023/09/11 00:22:19;;;;;;;18.93;6.83;;;16.20;99.90;;;;;;5072069;28;20175;-72
2023/09/11 00:24:44;;;;;;;17.63;6.47;;;16.10;99.90;;;;;;5070650;28;20198;-72
2023/09/11 00:27:10;;;;;;;19.67;6.53;;;16.20;99.90;;;;;;5071330;28;20193;-72
2023/09/11 00:29:35;;;;;;;14.10;5.97;;;16.20;99.90;;;;;;5071953;28;20241;-72
2023/09/11 00:32:01;;;;;;;16.90;6.27;;;16.20;99.90;;;;;;5071769;28;20178;-72
2023/09/11 00:34:26;;;;;;;23.13;6.30;;;16.20;99.90;;;;;;5071836;28;20901;-73
2023/09/11 00:36:52;;;;;;;17.00;6.23;;;16.20;99.90;;;;;;5070966;28;20252;-72
2023/09/11 00:39:18;;;;;;;16.73;5.57;;;16.10;99.90;;;;;;5071510;28;20213;-72
2023/09/11 00:41:43;;;;;;;14.77;6.23;;;16.10;99.90;;;;;;5071668;28;20225;-72
2023/09/11 00:44:09;;;;;;;19.47;6.33;;;16.10;99.90;;;;;;5071620;28;20186;-72
2023/09/11 00:46:35;;;;;;;17.30;6.20;;;16.10;99.90;;;;;;5071332;28;20663;-72
2023/09/11 00:49:01;;;;;;;22.83;7.03;;;16.00;99.90;;;;;;5070865;28;20228;-72
2023/09/11 00:51:27;;;;;;;18.43;6.40;;;16.00;99.90;;;;;;5071436;28;20181;-72
2023/09/11 00:53:54;;;;;;;14.80;6.67;;;16.00;99.90;;;;;;5071449;28;20178;-71
2023/09/11 00:56:19;;;;;;;19.63;5.90;;;15.90;99.90;;;;;;5071385;28;20190;-72
2023/09/11 00:58:46;;;;;;;19.97;6.23;;;15.80;99.90;;;;;;5070606;28;20197;-73
2023/09/11 01:01:13;;;;;;;13.67;5.77;;;15.80;99.90;;;;;;5071064;28;20210;-72
2023/09/11 01:03:38;;;;;;;17.77;6.70;;;15.70;99.90;;;;;;5071227;28;20287;-72
2023/09/11 01:06:04;;;;;;;22.77;6.67;;;15.70;99.90;;;;;;5071175;28;20812;-72
2023/09/11 01:08:31;;;;;;;14.83;6.23;;;15.70;99.90;;;;;;5070509;28;20179;-73
2023/09/11 01:10:57;;;;;;;18.00;6.33;;;15.70;99.90;;;;;;5071184;28;20190;-72
2023/09/11 01:13:23;;;;;;;15.00;6.17;;;15.70;99.90;;;;;;5070182;28;20174;-71
2023/09/11 01:16:32;;;;;;;12.63;6.23;;;15.70;99.90;;;;;;5070812;28;20220;-72
2023/09/11 01:19:16;;;;;;;21.60;6.67;;;15.60;99.90;;;;;;5066594;28;20198;-72
2023/09/11 01:22:26;;;;;;;17.03;6.50;;;15.60;99.90;;;;;;5070958;28;20231;-72
2023/09/11 01:25:22;;;;;;;14.60;6.20;;;15.60;99.90;;;;;;5070875;28;20194;-72
2023/09/11 01:27:54;;;;;;;23.77;6.90;;;15.60;99.90;;;;;;5070147;28;20517;-73
2023/09/11 01:30:22;;;;;;;13.83;6.27;;;15.60;99.90;;;;;;5070877;28;20257;-72
2023/09/11 01:32:48;;;;;;;19.50;6.30;;;15.60;99.90;;;;;;5070723;28;20265;-73
2023/09/11 01:35:14;;;;;;;22.50;6.80;;;15.60;99.90;;;;;;5070835;28;20283;-72
2023/09/11 01:37:39;;;;;;;18.77;7.10;;;15.50;99.90;;;;;;5070174;28;20614;-72
2023/09/11 01:40:06;;;;;;;21.90;6.83;;;15.40;99.90;;;;;;5069259;28;20210;-72
2023/09/11 01:42:43;;;;;;;19.10;7.10;;;15.30;99.90;;;;;;5069463;28;20231;-72
2023/09/11 01:45:13;;;;;;;19.07;6.57;;;15.20;99.90;;;;;;5070695;28;20794;-72
2023/09/11 01:47:39;;;;;;;18.80;6.50;;;15.20;99.90;;;;;;5069940;28;20561;-72
2023/09/11 01:50:06;;;;;;;18.53;6.20;;;15.30;99.90;;;;;;5070752;28;20174;-72
2023/09/11 01:52:34;;;;;;;15.67;6.40;;;15.30;99.90;;;;;;5070594;28;20181;-72
2023/09/11 01:54:59;;;;;;;16.23;6.20;;;15.30;99.90;;;;;;5070598;28;20247;-72
2023/09/11 01:57:27;;;;;;;23.33;6.70;;;15.30;99.90;;;;;;5069928;28;20645;-71
2023/09/11 01:59:53;;;;;;;23.33;6.60;;;15.30;99.90;;;;;;5070499;28;20267;-72
2023/09/11 02:02:18;;;;;;;18.73;6.50;;;15.30;99.90;;;;;;5070429;28;20175;-72
2023/09/11 02:04:45;;;;;;;12.40;5.97;;;15.30;99.90;;;;;;5070430;28;20209;-72
2023/09/11 02:07:10;;;;;;;19.47;7.03;;;15.30;99.90;;;;;;5069775;28;20185;-72
2023/09/11 02:09:36;;;;;;;17.57;6.07;;;15.20;99.90;;;;;;5070489;28;20265;-71
2023/09/11 02:12:01;;;;;;;24.77;6.53;;;15.20;99.90;;;;;;5069428;28;20220;-71
2023/09/11 02:14:28;;;;;;;13.77;6.27;;;15.20;99.90;;;;;;5070355;28;20182;-72
2023/09/11 02:16:54;;;;;;;17.23;6.47;;;15.20;99.90;;;;;;5069537;28;20218;-71
2023/09/11 02:19:19;;;;;;;13.50;6.33;;;15.20;99.90;;;;;;5068961;28;20268;-72
2023/09/11 02:21:45;;;;;;;18.40;7.07;;;15.20;99.90;;;;;;5070379;28;20709;-72
2023/09/11 02:24:10;;;;;;;15.30;6.47;;;15.20;99.90;;;;;;5071195;28;20266;-72
2023/09/11 02:26:36;;;;;;;17.37;6.13;;;15.20;99.90;;;;;;5074057;28;20232;-72
2023/09/11 02:29:02;;;;;;;11.73;6.73;;;15.20;99.90;;;;;;5073460;28;20175;-72
2023/09/11 02:31:27;;;;;;;14.90;6.40;;;15.10;99.90;;;;;;5072904;28;20174;-73
2023/09/11 02:33:53;;;;;;;18.80;7.20;;;15.10;99.90;;;;;;5074086;28;20260;-72
2023/09/11 02:36:18;;;;;;;15.13;6.17;;;15.00;99.90;;;;;;5074005;28;20229;-72
2023/09/11 02:38:44;;;;;;;14.90;6.27;;;15.00;99.90;;;;;;5071807;28;20270;-73
2023/09/11 02:41:09;;;;;;;17.93;6.57;;;15.00;99.90;;;;;;5073947;28;20293;-72
2023/09/11 02:43:35;;;;;;;14.20;6.03;;;14.90;99.90;;;;;;5073768;28;20174;-72
2023/09/11 02:46:00;;;;;;;15.83;6.67;;;14.90;99.90;;;;;;5073698;28;20202;-72
2023/09/11 02:48:27;;;;;;;14.23;6.30;;;14.90;99.90;;;;;;5071667;28;20216;-72
2023/09/11 02:50:53;;;;;;;15.30;6.43;;;14.80;99.90;;;;;;5073770;28;20197;-71
2023/09/11 02:53:18;;;;;;;18.90;5.70;;;14.80;99.90;;;;;;5073676;28;20545;-72
2023/09/11 02:55:44;;;;;;;15.17;6.60;;;14.80;99.90;;;;;;5073579;28;20209;-73
2023/09/11 02:58:09;;;;;;;16.40;6.73;;;14.80;99.90;;;;;;5072729;28;20752;-73
2023/09/11 03:00:36;;;;;;;18.33;6.17;;;14.70;99.90;;;;;;5073507;28;20616;-72
2023/09/11 03:03:05;;;;;;;18.30;5.93;;;14.70;99.90;;;;;;5073417;28;20181;-71
2023/09/11 03:05:32;;;;;;;22.20;6.47;;;14.70;99.90;;;;;;5073399;28;20190;-72
2023/09/11 03:08:01;;;;;;;15.67;6.40;;;14.70;99.90;;;;;;5072737;28;20212;-72
2023/09/11 03:10:28;;;;;;;22.60;6.77;;;14.70;99.90;;;;;;5073350;28;20171;-73
2023/09/11 03:12:54;;;;;;;15.37;6.67;;;14.70;99.90;;;;;;5073938;28;20174;-71
2023/09/11 03:15:30;;;;;;;10.70;5.63;;;14.70;99.90;;;;;;5071805;28;20706;-72
2023/09/11 03:17:56;;;;;;;12.37;6.30;;;14.70;99.90;;;;;;5072468;28;20229;-72
2023/09/11 03:20:21;;;;;;;15.47;6.57;;;14.60;99.90;;;;;;5073209;28;20293;-72
2023/09/11 03:22:47;;;;;;;15.23;6.27;;;14.60;99.90;;;;;;5073262;28;20194;-72
2023/09/11 03:25:12;;;;;;;17.00;7.23;;;14.60;99.90;;;;;;5073136;28;20589;-72
2023/09/11 03:27:38;;;;;;;14.87;6.60;;;14.60;99.90;;;;;;5072410;28;20178;-72
2023/09/11 03:30:04;;;;;;;16.43;6.97;;;14.50;99.90;;;;;;5073316;28;20229;-72
2023/09/11 03:32:30;;;;;;;17.80;6.60;;;14.50;99.90;;;;;;5071888;28;20217;-72
2023/09/11 03:34:55;;;;;;;18.60;6.83;;;14.50;99.90;;;;;;5071658;28;20575;-71
2023/09/11 03:37:24;;;;;;;17.03;6.67;;;14.40;99.90;;;;;;5070037;28;20216;-72
2023/09/11 03:39:50;;;;;;;15.93;6.63;;;14.40;99.90;;;;;;5072723;28;20711;-72
2023/09/11 03:42:15;;;;;;;14.00;6.67;;;14.40;99.90;;;;;;5072862;28;20163;-71
2023/09/11 03:44:41;;;;;;;16.13;6.13;;;14.40;99.90;;;;;;5071432;28;20589;-72
2023/09/11 03:47:06;;;;;;;14.27;6.37;;;14.40;99.90;;;;;;5071970;28;20775;-72
2023/09/11 03:49:32;;;;;;;13.00;6.03;;;14.40;99.90;;;;;;5072745;28;20179;-72
2023/09/11 03:51:57;;;;;;;16.37;6.33;;;14.30;99.90;;;;;;5072717;28;20195;-71
2023/09/11 03:54:23;;;;;;;20.93;6.63;;;14.30;99.90;;;;;;5072554;28;20198;-72
2023/09/11 03:56:49;;;;;;;13.17;6.13;;;14.30;99.90;;;;;;5071921;28;20571;-73
2023/09/11 03:59:15;;;;;;;17.67;6.47;;;14.20;99.90;;;;;;5072377;28;20171;-72
2023/09/11 04:01:40;;;;;;;17.60;6.27;;;14.30;99.90;;;;;;5072353;28;20517;-72
2023/09/11 04:04:06;;;;;;;16.73;6.30;;;14.20;99.90;;;;;;5072423;28;20254;-71
2023/09/11 04:06:31;;;;;;;20.40;6.40;;;14.20;99.90;;;;;;5072202;28;20201;-73
2023/09/11 04:08:57;;;;;;;14.87;5.97;;;14.20;99.90;;;;;;5071645;28;20532;-72
2023/09/11 04:11:23;;;;;;;18.53;6.13;;;14.20;99.90;;;;;;5072267;28;20265;-72
2023/09/11 04:13:49;;;;;;;20.20;6.77;;;14.20;99.90;;;;;;5072267;28;20237;-73
2023/09/11 04:16:15;;;;;;;21.37;7.43;;;14.20;99.90;;;;;;5071940;28;20210;-72
2023/09/11 04:18:42;;;;;;;14.67;6.00;;;14.10;99.90;;;;;;5071411;28;20155;-72
2023/09/11 04:21:08;;;;;;;17.57;6.33;;;14.10;99.90;;;;;;5072001;28;20600;-71
2023/09/11 04:23:34;;;;;;;24.00;7.13;;;14.10;99.90;;;;;;5070822;28;20178;-72
2023/09/11 04:26:00;;;;;;;20.40;5.60;;;14.00;99.90;;;;;;5071879;28;20241;-73
2023/09/11 04:28:25;;;;;;;25.60;6.87;;;14.00;99.90;;;;;;5071324;28;20257;-72
2023/09/11 04:30:51;;;;;;;18.40;5.90;;;14.10;99.90;;;;;;5071862;28;20196;-72
2023/09/11 04:33:18;;;;;;;12.73;7.10;;;14.00;99.90;;;;;;5071801;28;20181;-72
2023/09/11 04:35:44;;;;;;;16.80;6.47;;;14.00;99.90;;;;;;5071772;28;20672;-74
2023/09/11 04:38:10;;;;;;;13.23;6.43;;;13.90;99.90;;;;;;5068182;28;20171;-72
2023/09/11 04:40:35;;;;;;;13.57;6.00;;;14.00;99.90;;;;;;5070295;28;20201;-72
2023/09/11 04:43:01;;;;;;;15.97;6.40;;;14.00;99.90;;;;;;5071668;28;20257;-72
2023/09/11 04:45:26;;;;;;;11.87;6.20;;;14.00;99.90;;;;;;5071431;28;20191;-72
2023/09/11 04:47:52;;;;;;;14.63;5.87;;;13.90;99.90;;;;;;5070422;28;20266;-72
2023/09/11 04:50:17;;;;;;;17.73;6.57;;;13.90;99.90;;;;;;5071104;28;20193;-72
2023/09/11 04:52:43;;;;;;;15.37;6.20;;;14.00;99.90;;;;;;5070110;28;20240;-72
2023/09/11 04:55:09;;;;;;;15.63;6.17;;;13.90;99.90;;;;;;5069949;28;20731;-72
2023/09/11 04:57:36;;;;;;;23.33;6.30;;;13.90;99.90;;;;;;5070688;28;20175;-73
2023/09/11 05:00:10;;;;;;;15.60;6.67;;;13.90;99.90;;;;;;5070110;28;20555;-73
2023/09/11 05:02:36;;;;;;;16.77;6.80;;;13.90;99.90;;;;;;5070969;28;20194;-72
2023/09/11 05:05:05;;;;;;;12.57;5.40;;;13.90;99.90;;;;;;5069990;28;20637;-71
2023/09/11 05:07:30;;;;;;;13.83;5.73;;;13.90;99.90;;;;;;5069227;28;20167;-73
2023/09/11 05:09:56;;;;;;;21.37;6.47;;;13.80;99.90;;;;;;5070586;28;20182;-71
2023/09/11 05:12:22;;;;;;;18.00;5.70;;;13.80;99.90;;;;;;5070246;28;20178;-72
2023/09/11 05:14:47;;;;;;;12.07;6.40;;;13.80;99.90;;;;;;5070071;28;20182;-75
2023/09/11 05:17:13;;;;;;;15.87;6.43;;;13.80;99.90;;;;;;5069489;28;20194;-72
2023/09/11 05:19:38;;;;;;;13.07;6.07;;;13.90;99.90;;;;;;5070066;28;20217;-72
2023/09/11 05:22:04;;;;;;;19.53;6.83;;;13.90;99.90;;;;;;5070199;28;20167;-72
2023/09/11 05:24:31;;;;;;;15.93;6.77;;;13.90;99.90;;;;;;5070369;28;20162;-73
2023/09/11 05:26:57;;;;;;;19.80;6.17;;;13.90;99.90;;;;;;5069783;28;20169;-71
2023/09/11 05:29:23;;;;;;;14.27;6.40;;;13.90;99.90;;;;;;5069868;28;20187;-72
2023/09/11 05:31:48;;;;;;;13.00;6.67;;;14.00;99.90;;;;;;5069799;28;20205;-72
2023/09/11 05:34:14;;;;;;;15.67;6.87;;;14.00;99.90;;;;;;5070199;28;20259;-72
2023/09/11 05:36:40;;;;;;;18.97;6.63;;;14.10;99.90;;;;;;5069839;28;20202;-72
2023/09/11 05:39:05;;;;;;;14.37;6.27;;;14.10;99.90;;;;;;5069195;28;20202;-72
2023/09/11 05:41:31;;;;;;;16.30;7.07;;;14.10;99.90;;;;;;5070245;28;20169;-73
2023/09/11 05:43:56;;;;;;;15.03;5.67;;;14.20;99.90;;;;;;5069919;28;20170;-72
2023/09/11 05:46:22;;;;;;;21.07;6.57;;;14.30;99.90;;;;;;5068568;28;20202;-72
2023/09/11 05:48:48;;;;;;;15.10;6.37;;;14.30;99.90;;;;;;5069211;28;20599;-72
2023/09/11 05:51:14;;;;;;;22.73;6.87;;;14.40;99.90;;;;;;5069753;28;20202;-72
2023/09/11 05:53:39;;;;;;;17.70;6.67;;;14.50;99.90;;;;;;5069841;28;20579;-71
2023/09/11 05:56:05;;;;;;;24.73;7.10;;;14.50;99.90;;;;;;5069577;28;20199;-72
2023/09/11 05:58:31;;;;;;;24.83;6.70;;;14.60;99.90;;;;;;5069344;28;20255;-73
2023/09/11 06:00:56;;;;;;;19.97;7.17;;;14.60;99.90;;;;;;5073580;28;20284;-73
2023/09/11 06:03:22;;;;;;;22.03;6.60;;;14.80;99.90;;;;;;5073772;28;20253;-72
2023/09/11 06:05:48;;;;;;;27.27;6.90;;;14.90;99.90;;;;;;5073819;28;20623;-72
2023/09/11 06:08:13;;;;;;;32.57;7.90;;;15.00;99.90;;;;;;5073301;28;20560;-72
2023/09/11 06:10:39;;;;;;;19.37;6.33;;;15.00;99.90;;;;;;5073750;28;20289;-72
2023/09/11 06:13:04;;;;;;;24.87;6.77;;;15.00;99.90;;;;;;5073852;28;20261;-71
2023/09/11 06:15:30;;;;;;;26.37;6.87;;;14.90;99.90;;;;;;5072218;28;20202;-72
2023/09/11 06:17:56;;;;;;;28.43;7.10;;;14.90;99.90;;;;;;5073432;28;20209;-72
2023/09/11 06:20:21;;;;;;;23.17;6.83;;;15.00;99.90;;;;;;5073154;28;20572;-72
2023/09/11 06:22:48;;;;;;;30.63;7.53;;;15.20;99.90;;;;;;5073525;28;20170;-72
2023/09/11 06:25:15;;;;;;;21.80;7.20;;;15.40;99.90;;;;;;5073372;28;20251;-71
2023/09/11 06:27:40;;;;;;;22.53;7.50;;;15.60;99.90;;;;;;5072887;28;20163;-74
2023/09/11 06:30:06;;;;;;;19.23;7.50;;;15.60;99.90;;;;;;5072101;28;20174;-72
2023/09/11 06:32:33;;;;;;;29.67;7.77;;;15.70;99.90;;;;;;5073281;28;20588;-73
2023/09/11 06:34:59;;;;;;;18.73;6.60;;;15.90;99.90;;;;;;5073153;28;20209;-72
2023/09/11 06:37:25;;;;;;;17.07;6.03;;;16.10;99.90;;;;;;5072563;28;20640;-72
2023/09/11 06:39:50;;;;;;;21.67;7.03;;;16.40;99.90;;;;;;5072980;28;20247;-72
2023/09/11 06:42:20;;;;;;;24.90;7.23;;;16.60;99.90;;;;;;5073256;28;20178;-72
2023/09/11 06:44:46;;;;;;;24.90;7.07;;;16.60;99.90;;;;;;5072827;28;20166;-72
2023/09/11 06:47:12;;;;;;;24.67;6.80;;;16.70;99.90;;;;;;5072363;28;20589;-72
2023/09/11 06:49:37;;;;;;;16.43;6.40;;;16.80;99.90;;;;;;5072992;28;20171;-73
2023/09/11 06:52:03;;;;;;;18.40;7.67;;;16.90;99.90;;;;;;5072826;28;20190;-72
2023/09/11 06:54:29;;;;;;;20.93;7.23;;;17.20;99.90;;;;;;5072790;28;20656;-73
2023/09/11 06:56:55;;;;;;;25.67;8.40;;;17.30;99.90;;;;;;5072384;28;20320;-72
2023/09/11 06:59:20;;;;;;;20.47;7.57;;;17.70;99.90;;;;;;5072567;28;20181;-72
2023/09/11 07:01:46;;;;;;;20.43;7.47;;;18.10;99.90;;;;;;5071220;28;20540;-73
2023/09/11 07:04:11;;;;;;;22.30;7.13;;;18.30;99.90;;;;;;5072649;28;20257;-73
2023/09/11 07:06:38;;;;;;;20.10;7.13;;;18.70;99.90;;;;;;5071363;28;20198;-73
2023/09/11 07:09:05;;;;;;;17.40;6.30;;;19.10;99.90;;;;;;5071028;28;20169;-73
2023/09/11 07:11:31;;;;;;;27.60;6.67;;;19.40;99.90;;;;;;5072152;28;20797;-73
2023/09/11 07:13:56;;;;;;;14.90;6.13;;;19.60;99.90;;;;;;5071262;28;20174;-72
2023/09/11 07:16:22;;;;;;;23.53;6.40;;;19.70;99.90;;;;;;5072065;28;20225;-73
2023/09/11 07:18:48;;;;;;;13.87;5.70;;;19.90;99.90;;;;;;5071852;28;20205;-73
2023/09/11 07:21:13;;;;;;;20.07;6.20;;;20.20;99.90;;;;;;5072325;28;20200;-73
2023/09/11 07:23:39;;;;;;;16.43;5.97;;;20.60;99.90;;;;;;5072205;28;20179;-73
2023/09/11 07:26:05;;;;;;;19.27;6.27;;;20.80;99.90;;;;;;5072276;28;20194;-74
2023/09/11 07:28:33;;;;;;;18.10;6.23;;;20.90;99.90;;;;;;5071860;28;20648;-74
2023/09/11 07:30:58;;;;;;;24.10;6.83;;;21.10;99.90;;;;;;5072102;28;20171;-74
2023/09/11 07:33:24;;;;;;;21.33;6.20;;;21.40;99.90;;;;;;5070631;28;20194;-73
2023/09/11 07:35:50;;;;;;;20.03;6.40;;;21.60;99.90;;;;;;5072073;28;20190;-73
2023/09/11 07:38:16;;;;;;;25.23;6.50;;;21.90;99.90;;;;;;5071568;28;20171;-73
2023/09/11 07:40:42;;;;;;;21.90;5.67;;;22.20;99.90;;;;;;5072071;28;20214;-73
2023/09/11 07:43:08;;;;;;;21.30;5.90;;;22.30;99.90;;;;;;5071973;28;20225;-74
2023/09/11 07:45:34;;;;;;;18.50;6.30;;;22.70;99.90;;;;;;5070519;28;20197;-74
2023/09/11 07:48:00;;;;;;;17.93;5.80;;;22.90;99.90;;;;;;5071284;28;20169;-74
2023/09/11 07:50:25;;;;;;;27.23;6.13;;;23.10;99.90;;;;;;5071779;28;20265;-73
2023/09/11 07:52:51;;;;;;;19.47;5.77;;;23.50;99.90;;;;;;5071773;28;20745;-73
2023/09/11 07:55:17;;;;;;;20.57;6.00;;;23.70;99.90;;;;;;5071688;28;20194;-73
2023/09/11 07:57:43;;;;;;;30.00;5.90;;;24.10;99.90;;;;;;5071049;28;20186;-75
2023/09/11 08:00:09;;;;;;;16.00;5.23;;;24.00;99.90;;;;;;5071775;28;20217;-75
2023/09/11 08:02:36;;;;;;;21.07;5.57;;;24.40;99.90;;;;;;5071568;28;20562;-75
2023/09/11 08:05:02;;;;;;;22.40;5.80;;;24.90;99.90;;;;;;5071683;28;20683;-75
2023/09/11 08:07:28;;;;;;;18.17;6.10;;;25.30;99.90;;;;;;5070841;28;20179;-75
2023/09/11 08:09:53;;;;;;;28.03;5.40;;;25.80;99.90;;;;;;5071477;28;20187;-75
2023/09/11 08:12:19;;;;;;;20.10;5.30;;;26.30;99.90;;;;;;5071471;28;20267;-74
2023/09/11 08:14:45;;;;;;;15.33;5.47;;;26.60;99.90;;;;;;5071292;28;20178;-75
2023/09/11 08:17:11;;;;;;;20.67;5.47;;;26.90;99.90;;;;;;5070481;28;20669;-75
2023/09/11 08:19:37;;;;;;;16.13;5.40;;;27.20;99.90;;;;;;5070296;28;20205;-74
2023/09/11 08:22:03;;;;;;;15.93;5.30;;;27.50;99.90;;;;;;5070552;28;20206;-75
2023/09/11 08:24:29;;;;;;;26.93;5.10;;;27.90;99.90;;;;;;5070927;28;20205;-76
2023/09/11 08:26:55;;;;;;;13.87;4.90;;;28.20;99.90;;;;;;5071366;28;20213;-75
2023/09/11 08:29:20;;;;;;;13.67;4.80;;;28.60;99.90;;;;;;5072919;28;20183;-75
2023/09/11 08:31:46;;;;;;;19.47;5.90;;;28.90;99.90;;;;;;5071036;28;20652;-76
2023/09/11 08:34:12;;;;;;;22.90;5.00;;;29.20;99.90;;;;;;5071033;28;20206;-74
2023/09/11 08:36:38;;;;;;;22.33;5.73;;;29.30;99.90;;;;;;5069549;28;20202;-75
2023/09/11 08:39:03;;;;;;;25.97;5.50;;;29.10;99.90;;;;;;5070707;28;20940;-75
2023/09/11 08:41:30;;;;;;;14.25;4.82;;;29.30;99.90;;;;;;5070870;28;20289;-76
2023/09/11 08:43:56;;;;;;;18.90;5.13;;;29.80;99.90;;;;;;5070748;28;20224;-75
2023/09/11 08:46:22;;;;;;;19.58;4.60;;;29.90;99.90;;;;;;5070659;28;20202;-75
2023/09/11 08:48:54;;;;;;;26.42;5.25;;;30.10;99.90;;;;;;5070011;28;20211;-76
2023/09/11 08:51:38;;;;;;;27.73;5.68;;;30.20;99.90;;;;;;5070453;28;20636;-76
2023/09/11 08:54:04;;;;;;;24.63;5.35;;;30.20;99.90;;;;;;5085172;28;20553;-76
2023/09/11 08:56:30;;;;;;;23.48;5.82;;;30.00;99.90;;;;;;5075695;28;20288;-76
2023/09/11 08:58:58;;;;;;;20.13;5.20;;;30.00;99.90;;;;;;5069916;28;20559;-77
2023/09/11 09:01:24;;;;;;;19.33;5.03;;;30.10;99.90;;;;;;5072868;28;20253;-77
2023/09/11 09:03:51;;;;;;;21.15;5.75;;;29.90;99.90;;;;;;5090604;28;20174;-76
2023/09/11 09:06:18;;;;;;;18.45;5.50;;;30.00;99.90;;;;;;5074663;28;20255;-77
2023/09/11 09:08:44;;;;;;;25.02;5.53;;;30.10;99.90;;;;;;5052147;28;20197;-76
2023/09/11 09:11:11;;;;;;;21.48;5.30;;;30.30;99.90;;;;;;5069782;28;20706;-76
2023/09/11 09:13:36;;;;;;;22.30;5.38;;;30.50;99.90;;;;;;5070187;28;20184;-76
2023/09/11 09:16:05;;;;;;;25.83;5.38;;;30.90;99.90;;;;;;5068886;28;20207;-76
2023/09/11 09:18:30;;;;;;;19.30;5.22;;;31.00;99.90;;;;;;5069464;28;20632;-77
2023/09/11 09:20:56;;;;;;;29.77;6.53;;;30.50;99.90;;;;;;5070194;28;20682;-75
2023/09/11 09:23:39;;;;;;;18.83;5.05;;;30.10;99.90;;;;;;5070242;28;20169;-76
2023/09/11 09:26:06;;;;;;;14.65;5.10;;;30.20;99.90;;;;;;5070390;28;20182;-76
2023/09/11 09:28:33;;;;;;;23.75;5.40;;;30.40;99.90;;;;;;5069464;28;20210;-76
2023/09/11 09:30:59;;;;;;;18.65;5.45;;;30.50;99.90;;;;;;5070354;28;20206;-76
2023/09/11 09:33:25;;;;;;;22.17;5.35;;;30.70;99.90;;;;;;5069591;28;20224;-75
2023/09/11 09:35:51;;;;;;;19.45;6.07;;;31.00;99.90;;;;;;5069668;28;20564;-75
2023/09/11 09:38:20;;;;;;;15.15;5.38;;;31.00;99.90;;;;;;5069453;28;20201;-75
2023/09/11 09:40:46;;;;;;;21.40;5.75;;;31.40;99.90;;;;;;5070213;28;20209;-76
2023/09/11 09:43:19;;;;;;;16.27;5.57;;;31.80;99.90;;;;;;5069678;28;20175;-76
2023/09/11 09:45:45;;;;;;;21.27;4.93;;;31.70;99.90;;;;;;5069742;28;20188;-75
2023/09/11 09:48:18;;;;;;;19.90;4.93;;;32.00;99.90;;;;;;5069107;28;20206;-75
2023/09/11 09:50:58;;;;;;;24.10;5.78;;;32.10;99.90;;;;;;5069648;28;20489;-76
2023/09/11 09:53:25;;;;;;;24.00;5.22;;;32.20;99.90;;;;;;5069972;28;20823;-76
2023/09/11 09:55:51;;;;;;;24.20;5.30;;;33.00;99.90;;;;;;5068733;28;20205;-77
2023/09/11 09:58:24;;;;;;;19.20;4.88;;;32.80;99.90;;;;;;5069143;28;20161;-77
2023/09/11 10:00:50;;;;;;;19.35;5.60;;;32.90;99.90;;;;;;5069226;28;20757;-78
2023/09/11 10:03:15;;;;;;;20.48;4.93;;;33.50;99.90;;;;;;5070677;28;20182;-76
2023/09/11 10:05:41;;;;;;;14.82;5.00;;;33.70;99.90;;;;;;5070246;28;20187;-77
2023/09/11 10:08:07;;;;;;;20.13;5.20;;;33.60;99.90;;;;;;5069052;28;20174;-76
2023/09/11 10:10:34;;;;;;;20.77;4.78;;;33.70;99.90;;;;;;5069568;28;20637;-77
2023/09/11 10:13:10;;;;;;;21.27;4.90;;;33.40;99.90;;;;;;5069677;28;20710;-76
2023/09/11 10:15:38;;;;;;;34.30;5.70;;;33.20;99.90;;;;;;5069240;28;20208;-76
2023/09/11 10:18:05;;;;;;;24.15;5.57;;;33.20;99.90;;;;;;5068851;28;20204;-76
2023/09/11 10:20:32;;;;;;;16.67;4.63;;;33.20;99.90;;;;;;5069374;28;20198;-77
2023/09/11 10:23:02;;;;;;;20.98;5.32;;;33.20;99.90;;;;;;5069531;28;20175;-77
2023/09/11 10:25:29;;;;;;;20.40;4.35;;;33.30;99.90;;;;;;5068099;28;20202;-77
2023/09/11 10:28:26;;;;;;;21.30;5.38;;;33.60;99.90;;;;;;5068920;28;20637;-76
2023/09/11 10:31:02;;;;;;;21.40;5.65;;;34.00;99.90;;;;;;5067013;28;20300;-77
2023/09/11 10:33:29;;;;;;;19.13;4.82;;;34.30;99.90;;;;;;5069178;28;20155;-76
2023/09/11 10:35:59;;;;;;;16.00;5.25;;;34.40;99.90;;;;;;5069310;28;20205;-77
2023/09/11 10:38:31;;;;;;;21.10;5.32;;;34.40;99.90;;;;;;5068843;28;20163;-76
2023/09/11 10:40:59;;;;;;;20.05;5.03;;;34.20;99.90;;;;;;5069256;28;20598;-77
2023/09/11 10:43:25;;;;;;;22.23;5.65;;;34.10;99.90;;;;;;5069326;28;20178;-77
2023/09/11 10:45:51;;;;;;;25.40;4.82;;;34.20;99.90;;;;;;5071034;28;20684;-77
2023/09/11 10:48:27;;;;;;;18.55;5.25;;;34.50;99.90;;;;;;5070937;28;20167;-77
2023/09/11 10:50:54;;;;;;;24.25;5.05;;;34.70;99.90;;;;;;5073234;28;20171;-76
2023/09/11 10:53:19;;;;;;;22.33;5.57;;;34.40;99.90;;;;;;5072839;28;20253;-77
2023/09/11 10:55:45;;;;;;;20.88;5.50;;;34.30;99.90;;;;;;5071910;28;20269;-78
2023/09/11 10:58:12;;;;;;;16.13;4.60;;;34.60;99.90;;;;;;5072490;28;20624;-78
2023/09/11 11:00:38;;;;;;;29.45;5.38;;;34.60;99.90;;;;;;5072528;28;20301;-78
2023/09/11 11:03:07;;;;;;;20.95;5.28;;;34.30;99.90;;;;;;5072789;28;20182;-76
2023/09/11 11:05:33;;;;;;;23.40;5.45;;;34.10;99.90;;;;;;5072554;28;20201;-77
2023/09/11 11:07:59;;;;;;;26.88;4.93;;;33.90;99.90;;;;;;5071952;28;20182;-76
2023/09/11 11:10:26;;;;;;;21.60;6.03;;;33.90;99.90;;;;;;5072598;28;20257;-76
2023/09/11 11:13:05;;;;;;;35.83;11.50;;;33.70;99.90;;;;;;5072625;28;20185;-77
2023/09/11 11:15:31;;;;;;;16.10;4.90;;;33.80;99.90;;;;;;5067848;28;20547;-76
2023/09/11 11:18:11;;;;;;;13.40;5.15;;;33.70;99.90;;;;;;5068687;28;20205;-76
2023/09/11 11:20:57;;;;;;;20.48;5.15;;;33.60;99.90;;;;;;5070943;28;20234;-75
2023/09/11 11:23:25;;;;;;;17.33;4.97;;;33.70;99.90;;;;;;5072365;28;20543;-75
2023/09/11 11:25:51;;;;;;;17.80;5.25;;;33.70;99.90;;;;;;5071097;28;20728;-77
2023/09/11 11:28:21;;;;;;;16.67;5.38;;;33.80;99.90;;;;;;5071750;28;20186;-76
2023/09/11 11:30:50;;;;;;;19.15;5.18;;;33.90;99.90;;;;;;5072388;28;20170;-77
2023/09/11 11:33:22;;;;;;;21.13;5.20;;;33.90;99.90;;;;;;5072096;28;20181;-78
2023/09/11 11:35:48;;;;;;;20.85;4.90;;;33.70;99.90;;;;;;5071990;28;20288;-76
2023/09/11 11:38:18;;;;;;;18.05;5.85;;;33.50;99.90;;;;;;5071953;28;20307;-75
2023/09/11 11:40:44;;;;;;;22.45;5.57;;;33.10;99.90;;;;;;5073319;28;20205;-75
2023/09/11 11:43:11;;;;;;;14.85;4.32;;;32.90;99.90;;;;;;5071966;28;20217;-77
2023/09/11 11:45:41;;;;;;;22.25;5.03;;;33.30;99.90;;;;;;5071663;28;20186;-76
2023/09/11 11:48:13;;;;;;;26.60;4.80;;;33.20;99.90;;;;;;5071909;28;20166;-77
2023/09/11 11:50:45;;;;;;;18.92;4.40;;;33.30;99.90;;;;;;5071991;28;20493;-77
2023/09/11 11:53:23;;;;;;;20.02;4.68;;;33.30;99.90;;;;;;5071545;28;20176;-76
2023/09/11 11:55:50;;;;;;;20.45;5.03;;;33.10;99.90;;;;;;5071762;28;20228;-78
2023/09/11 11:58:16;;;;;;;16.10;4.70;;;33.10;99.90;;;;;;5052358;28;20220;-76
2023/09/11 12:01:00;;;;;;;25.73;4.82;;;33.20;99.90;;;;;;5070782;28;20590;-75
2023/09/11 12:03:27;;;;;;;16.70;4.43;;;33.50;99.90;;;;;;5071550;28;20171;-76
2023/09/11 12:05:54;;;;;;;14.93;3.90;;;33.10;99.90;;;;;;5071365;28;20185;-75
2023/09/11 12:08:20;;;;;;;25.48;4.57;;;33.00;99.90;;;;;;5070917;28;20644;-76
2023/09/11 12:10:49;;;;;;;25.00;4.35;;;33.20;99.90;;;;;;5071742;28;20699;-77
2023/09/11 12:13:22;;;;;;;17.42;4.05;;;33.30;99.90;;;;;;5070052;28;20532;-76
2023/09/11 12:15:58;;;;;;;14.82;4.00;;;33.70;99.90;;;;;;5071125;28;20203;-77
2023/09/11 12:18:25;;;;;;;15.25;4.03;;;33.80;99.90;;;;;;5070705;28;20157;-75
2023/09/11 12:21:02;;;;;;;15.30;4.53;;;33.90;99.90;;;;;;5071105;28;20298;-78
2023/09/11 12:23:28;;;;;;;15.43;4.05;;;34.00;99.90;;;;;;5071248;28;20209;-77
2023/09/11 12:25:55;;;;;;;16.40;4.38;;;34.00;99.90;;;;;;5070987;28;20742;-76
2023/09/11 12:28:22;;;;;;;21.30;4.00;;;34.00;99.90;;;;;;5070663;28;20200;-78
2023/09/11 12:30:48;;;;;;;11.27;3.85;;;34.10;99.90;;;;;;5071030;28;20265;-77
2023/09/11 12:33:16;;;;;;;19.02;3.92;;;34.00;99.90;;;;;;5070809;28;20188;-76
2023/09/11 12:35:45;;;;;;;18.88;4.28;;;34.10;99.90;;;;;;5071016;28;20199;-76